createdAt,value
2023-05-19T00:01:32.031Z,7.76
2023-05-19T00:04:02.878Z,7.73
2023-05-19T00:06:33.973Z,7.74
2023-05-19T00:09:03.503Z,7.68
2023-05-19T00:11:31.717Z,7.68
2023-05-19T00:14:01.847Z,7.69
2023-05-19T00:16:30.736Z,7.65
2023-05-19T00:19:00.031Z,7.64
2023-05-19T00:21:28.111Z,7.55
2023-05-19T00:23:57.476Z,7.57
2023-05-19T00:26:26.894Z,7.48
2023-05-19T00:28:55.171Z,7.46
2023-05-19T00:31:22.954Z,7.44
2023-05-19T00:33:52.009Z,7.44
2023-05-19T00:36:19.820Z,7.46
2023-05-19T00:38:47.540Z,7.43
2023-05-19T00:41:16.516Z,7.44
2023-05-19T00:43:44.201Z,7.44
2023-05-19T00:46:12.032Z,7.39
2023-05-19T00:48:39.698Z,7.38
2023-05-19T00:51:08.004Z,7.38
2023-05-19T00:53:36.399Z,7.29
2023-05-19T00:56:04.469Z,7.24
2023-05-19T00:58:34.944Z,7.22
2023-05-19T01:01:03.666Z,7.24
2023-05-19T01:03:35.030Z,7.23
2023-05-19T01:06:05.300Z,7.30
2023-05-19T01:08:33.421Z,7.31
2023-05-19T01:11:01.223Z,7.28
2023-05-19T01:13:29.613Z,7.35
2023-05-19T01:16:09.854Z,7.26
2023-05-19T01:18:46.340Z,7.21
2023-05-19T01:21:37.146Z,7.16
2023-05-19T01:24:24.181Z,7.13
2023-05-19T01:27:22.648Z,7.11
2023-05-19T01:30:16.948Z,7.14
2023-05-19T01:32:48.343Z,7.09
2023-05-19T01:35:17.753Z,7.07
2023-05-19T01:37:46.170Z,7.09
2023-05-19T01:40:14.376Z,7.12
2023-05-19T01:42:43.092Z,7.13
2023-05-19T01:45:11.399Z,7.12
2023-05-19T01:47:48.376Z,7.06
2023-05-19T01:50:16.135Z,7.05
2023-05-19T01:52:43.857Z,7.05
2023-05-19T01:55:11.672Z,7.09
2023-05-19T01:57:53.280Z,7.06
2023-05-19T02:00:32.791Z,7.03
2023-05-19T02:03:14.014Z,7.10
2023-05-19T02:05:53.984Z,7.07
2023-05-19T02:08:26.869Z,7.08
2023-05-19T02:11:07.615Z,7.07
2023-05-19T02:13:39.108Z,7.04
2023-05-19T02:16:08.121Z,7.02
2023-05-19T02:18:37.275Z,6.93
2023-05-19T02:21:05.332Z,6.95
2023-05-19T02:23:32.986Z,6.91
2023-05-19T02:26:01.085Z,6.87
2023-05-19T02:28:28.756Z,6.84
2023-05-19T02:30:56.435Z,6.78
2023-05-19T02:33:27.453Z,6.75
2023-05-19T02:35:56.497Z,6.74
2023-05-19T02:38:24.207Z,6.80
2023-05-19T02:40:52.623Z,6.81
2023-05-19T02:43:20.755Z,6.82
2023-05-19T02:45:48.504Z,6.77
2023-05-19T02:48:16.123Z,6.76
2023-05-19T02:50:43.901Z,6.73
2023-05-19T02:53:12.845Z,6.71
2023-05-19T02:55:40.406Z,6.70
2023-05-19T02:58:08.076Z,6.69
2023-05-19T03:00:35.646Z,6.67
2023-05-19T03:03:04.684Z,6.65
2023-05-19T03:05:32.358Z,6.62
2023-05-19T03:08:00.645Z,6.60
2023-05-19T03:10:29.748Z,6.60
2023-05-19T03:12:57.462Z,6.60
2023-05-19T03:15:25.108Z,6.57
2023-05-19T03:17:52.994Z,6.58
2023-05-19T03:20:20.740Z,6.64
2023-05-19T03:22:48.317Z,6.70
2023-05-19T03:25:16.030Z,6.78
2023-05-19T03:27:45.012Z,6.82
2023-05-19T03:30:13.897Z,6.93
2023-05-19T03:32:42.233Z,6.96
2023-05-19T03:35:10.258Z,7.04
2023-05-19T03:37:37.857Z,7.12
2023-05-19T03:40:07.306Z,7.23
2023-05-19T03:42:34.950Z,7.34
2023-05-19T03:45:04.241Z,7.41
2023-05-19T03:47:32.613Z,7.50
2023-05-19T03:50:00.238Z,7.65
2023-05-19T03:52:27.937Z,7.70
2023-05-19T03:54:55.872Z,7.78
2023-05-19T03:57:23.560Z,7.90
2023-05-19T03:59:51.337Z,8.01
2023-05-19T04:02:20.309Z,8.13
2023-05-19T04:04:48.041Z,8.30
2023-05-19T04:07:15.767Z,8.41
2023-05-19T04:09:43.398Z,8.57
2023-05-19T04:12:11.199Z,8.73
2023-05-19T04:14:38.825Z,8.95
2023-05-19T04:17:06.508Z,9.20
2023-05-19T04:19:35.502Z,9.40
2023-05-19T04:22:03.094Z,9.77
2023-05-19T04:24:30.725Z,10.41
2023-05-19T04:27:02.393Z,10.89
2023-05-19T04:29:30.473Z,11.47
2023-05-19T04:31:58.157Z,11.92
2023-05-19T04:34:25.883Z,12.91
2023-05-19T04:36:55.443Z,14.17
2023-05-19T04:39:23.064Z,15.33
2023-05-19T04:41:50.684Z,16.10
2023-05-19T04:44:19.177Z,16.98
2023-05-19T04:46:47.159Z,18.05
2023-05-19T04:49:14.882Z,18.82
2023-05-19T04:51:42.639Z,19.49
2023-05-19T04:54:11.829Z,19.85
2023-05-19T04:56:39.476Z,20.01
2023-05-19T04:59:07.061Z,20.23
2023-05-19T05:01:34.753Z,20.71
2023-05-19T05:04:02.752Z,21.21
2023-05-19T05:06:31.657Z,21.27
2023-05-19T05:08:59.972Z,21.15
2023-05-19T05:11:29.599Z,21.05
2023-05-19T05:13:57.993Z,20.86
2023-05-19T05:16:27.087Z,20.95
2023-05-19T05:18:55.818Z,20.89
2023-05-19T05:21:24.323Z,20.71
2023-05-19T05:23:52.582Z,20.01
2023-05-19T05:26:23.016Z,19.40
2023-05-19T05:28:52.123Z,19.03
2023-05-19T05:31:19.991Z,18.29
2023-05-19T05:33:47.990Z,17.77
2023-05-19T05:36:15.787Z,17.11
2023-05-19T05:38:43.529Z,16.71
2023-05-19T05:41:11.688Z,16.37
2023-05-19T05:43:40.811Z,16.12
2023-05-19T05:46:09.818Z,15.84
2023-05-19T05:48:38.124Z,15.59
2023-05-19T05:51:07.022Z,15.46
2023-05-19T05:53:40.033Z,15.46
2023-05-19T05:56:08.662Z,15.50
2023-05-19T05:58:37.873Z,15.59
2023-05-19T06:01:06.098Z,15.65
2023-05-19T06:03:35.139Z,15.39
2023-05-19T06:06:03.335Z,15.31
2023-05-19T06:08:31.186Z,15.24
2023-05-19T06:10:59.028Z,15.22
2023-05-19T06:13:26.644Z,15.02
2023-05-19T06:15:54.284Z,14.89
2023-05-19T06:18:22.206Z,14.81
2023-05-19T06:20:51.441Z,14.85
2023-05-19T06:23:19.008Z,14.83
2023-05-19T06:25:47.181Z,15.01
2023-05-19T06:28:14.902Z,15.12
2023-05-19T06:30:42.508Z,15.17
2023-05-19T06:33:10.152Z,15.12
2023-05-19T06:35:38.147Z,15.13
2023-05-19T06:38:07.188Z,15.16
2023-05-19T06:40:35.003Z,15.18
2023-05-19T06:43:02.798Z,15.24
2023-05-19T06:45:30.434Z,15.12
2023-05-19T06:47:59.604Z,15.19
2023-05-19T06:50:27.385Z,15.14
2023-05-19T06:52:55.546Z,15.27
2023-05-19T06:55:25.010Z,15.27
2023-05-19T06:57:52.615Z,15.27
2023-05-19T07:00:22.093Z,15.23
2023-05-19T07:02:51.718Z,15.24
2023-05-19T07:05:19.666Z,15.30
2023-05-19T07:07:47.445Z,15.55
2023-05-19T07:10:15.149Z,15.53
2023-05-19T07:12:44.928Z,15.67
2023-05-19T07:15:12.721Z,15.72
2023-05-19T07:17:40.567Z,15.46
2023-05-19T07:20:09.994Z,15.53
2023-05-19T07:22:39.835Z,15.66
2023-05-19T07:25:08.359Z,15.62
2023-05-19T07:27:36.019Z,15.47
2023-05-19T07:30:05.661Z,15.25
2023-05-19T07:32:33.566Z,15.22
2023-05-19T07:35:03.084Z,15.25
2023-05-19T07:37:31.308Z,15.50
2023-05-19T07:39:59.182Z,15.41
2023-05-19T07:42:26.825Z,15.58
2023-05-19T07:44:54.543Z,15.49
2023-05-19T07:47:23.611Z,15.40
2023-05-19T07:49:51.982Z,15.69
2023-05-19T07:52:19.893Z,15.89
2023-05-19T07:54:47.534Z,15.92
2023-05-19T07:57:15.500Z,16.00
2023-05-19T07:59:43.175Z,16.17
2023-05-19T08:02:10.898Z,16.48
2023-05-19T08:04:40.086Z,16.59
2023-05-19T08:07:07.798Z,16.50
2023-05-19T08:09:35.451Z,16.35
2023-05-19T08:12:04.854Z,16.43
2023-05-19T08:14:34.858Z,16.37
2023-05-19T08:17:02.505Z,16.54
2023-05-19T08:19:30.280Z,16.64
2023-05-19T08:22:01.115Z,16.49
2023-05-19T08:24:30.164Z,16.41
2023-05-19T08:26:57.767Z,16.42
2023-05-19T08:29:25.478Z,16.78
2023-05-19T08:31:53.538Z,16.66
2023-05-19T08:34:22.327Z,16.32
2023-05-19T08:36:50.065Z,16.84
2023-05-19T08:39:24.083Z,17.23
2023-05-19T08:41:51.728Z,17.09
2023-05-19T08:44:19.333Z,17.23
2023-05-19T08:46:48.574Z,17.32
2023-05-19T08:49:25.563Z,16.47
2023-05-19T08:51:59.334Z,16.98
2023-05-19T08:54:33.614Z,17.15
2023-05-19T08:57:02.206Z,17.44
2023-05-19T08:59:30.928Z,17.04
2023-05-19T09:01:59.072Z,16.66
2023-05-19T09:04:29.955Z,16.84
2023-05-19T09:06:58.786Z,17.06
2023-05-19T09:09:27.891Z,17.26
2023-05-19T09:11:55.600Z,17.02
2023-05-19T09:14:23.894Z,17.45
2023-05-19T09:16:52.802Z,17.55
2023-05-19T09:19:21.240Z,17.48
2023-05-19T09:21:59.858Z,17.53
2023-05-19T09:24:29.845Z,17.60
2023-05-19T09:26:59.905Z,17.54
2023-05-19T09:29:28.040Z,17.53
2023-05-19T09:32:00.603Z,16.91
2023-05-19T09:34:28.751Z,16.63
2023-05-19T09:36:57.941Z,16.89
2023-05-19T09:39:26.127Z,17.38
2023-05-19T09:41:56.262Z,17.81
2023-05-19T09:44:24.308Z,18.29
2023-05-19T09:46:53.001Z,18.53
2023-05-19T09:49:22.521Z,18.14
2023-05-19T09:51:51.905Z,17.99
2023-05-19T09:54:21.402Z,18.30
2023-05-19T09:56:53.093Z,18.46
2023-05-19T09:59:25.622Z,18.55
2023-05-19T10:01:55.996Z,18.72
2023-05-19T10:04:24.328Z,18.27
2023-05-19T10:06:54.306Z,18.44
2023-05-19T10:09:24.768Z,18.16
2023-05-19T10:11:54.122Z,18.44
2023-05-19T10:14:25.662Z,18.40
2023-05-19T10:16:55.830Z,18.03
2023-05-19T10:19:25.103Z,18.18
2023-05-19T10:21:53.307Z,18.30
2023-05-19T10:24:21.434Z,18.27
2023-05-19T10:26:54.517Z,18.40
2023-05-19T10:29:34.281Z,18.47
2023-05-19T10:32:05.892Z,17.66
2023-05-19T10:35:09.090Z,17.78
2023-05-19T10:37:45.954Z,17.77
2023-05-19T10:40:22.100Z,17.71
2023-05-19T10:43:03.253Z,17.62
2023-05-19T10:45:37.479Z,17.58
2023-05-19T10:48:05.830Z,17.51
2023-05-19T10:50:37.981Z,17.38
2023-05-19T10:53:05.600Z,17.36
2023-05-19T10:55:47.573Z,17.29
2023-05-19T10:58:15.567Z,17.28
2023-05-19T11:00:44.656Z,17.05
2023-05-19T11:03:16.205Z,17.46
2023-05-19T11:05:45.679Z,17.80
2023-05-19T11:08:14.126Z,17.54
2023-05-19T11:10:45.312Z,17.66
2023-05-19T11:13:22.712Z,17.56
2023-05-19T11:15:52.886Z,17.49
2023-05-19T11:18:21.333Z,17.51
2023-05-19T11:20:58.198Z,17.41
2023-05-19T11:23:27.188Z,17.47
2023-05-19T11:25:54.812Z,17.50
2023-05-19T11:28:25.933Z,17.50
2023-05-19T11:30:57.593Z,17.51
2023-05-19T11:33:27.181Z,17.54
2023-05-19T11:35:57.938Z,17.48
2023-05-19T11:38:26.466Z,17.65
2023-05-19T11:40:54.823Z,17.54
2023-05-19T11:43:24.587Z,17.68
2023-05-19T11:45:52.553Z,17.38
2023-05-19T11:48:23.674Z,17.40
2023-05-19T11:50:52.437Z,17.42
2023-05-19T11:53:20.923Z,17.65
2023-05-19T11:55:50.057Z,17.68
2023-05-19T11:58:18.391Z,17.58
2023-05-19T12:00:47.688Z,17.59
2023-05-19T12:03:17.412Z,17.68
2023-05-19T12:05:49.561Z,17.66
2023-05-19T12:08:18.364Z,17.63
2023-05-19T12:10:49.753Z,17.44
2023-05-19T12:13:17.985Z,17.57
2023-05-19T12:15:46.180Z,17.52
2023-05-19T12:18:13.888Z,17.61
2023-05-19T12:20:41.836Z,17.73
2023-05-19T12:23:11.156Z,17.75
2023-05-19T12:25:39.339Z,17.67
2023-05-19T12:28:07.835Z,17.69
2023-05-19T12:30:35.867Z,17.62
2023-05-19T12:33:04.356Z,17.72
2023-05-19T12:35:34.070Z,17.72
2023-05-19T12:38:04.539Z,17.71
2023-05-19T12:40:34.690Z,17.93
2023-05-19T12:43:02.762Z,17.91
2023-05-19T12:45:35.049Z,17.82
2023-05-19T12:48:05.263Z,17.75
2023-05-19T12:50:34.163Z,17.56
2023-05-19T12:53:02.169Z,17.52
2023-05-19T12:55:31.100Z,17.73
2023-05-19T12:58:00.341Z,17.72
2023-05-19T13:00:30.952Z,17.62
2023-05-19T13:03:01.414Z,17.76
2023-05-19T13:05:31.553Z,17.64
2023-05-19T13:08:00.547Z,17.38
2023-05-19T13:10:28.879Z,17.42
2023-05-19T13:12:57.313Z,17.50
2023-05-19T13:15:27.245Z,17.46
2023-05-19T13:17:56.042Z,17.44
2023-05-19T13:20:26.903Z,17.37
2023-05-19T13:22:56.947Z,17.26
2023-05-19T13:25:24.576Z,17.43
2023-05-19T13:27:52.242Z,17.51
2023-05-19T13:30:20.968Z,17.51
2023-05-19T13:32:50.718Z,17.67
2023-05-19T13:35:18.327Z,17.86
2023-05-19T13:37:46.265Z,17.86
2023-05-19T13:40:15.817Z,17.90
2023-05-19T13:42:43.566Z,17.71
2023-05-19T13:45:11.643Z,17.74
2023-05-19T13:47:39.826Z,17.70
2023-05-19T13:50:09.659Z,17.57
2023-05-19T13:52:37.331Z,17.65
2023-05-19T13:55:05.539Z,17.67
2023-05-19T13:57:33.482Z,17.68
2023-05-19T14:00:03.704Z,17.58
2023-05-19T14:02:32.163Z,17.76
2023-05-19T14:04:59.887Z,17.67
2023-05-19T14:07:29.237Z,17.63
2023-05-19T14:09:57.017Z,17.69
2023-05-19T14:12:33.893Z,17.46
2023-05-19T14:15:04.905Z,17.71
2023-05-19T14:17:32.766Z,17.51
2023-05-19T14:20:01.319Z,17.49
2023-05-19T14:22:30.567Z,17.49
2023-05-19T14:24:58.213Z,17.56
2023-05-19T14:27:25.953Z,17.38
2023-05-19T14:29:53.615Z,17.53
2023-05-19T14:32:21.737Z,17.54
2023-05-19T14:34:52.738Z,17.56
2023-05-19T14:37:20.620Z,17.64
2023-05-19T14:39:49.687Z,17.58
2023-05-19T14:42:17.428Z,17.61
2023-05-19T14:44:45.187Z,17.64
2023-05-19T14:47:12.940Z,17.54
2023-05-19T14:49:40.651Z,17.58
2023-05-19T14:52:08.385Z,17.46
2023-05-19T14:54:36.100Z,17.64
2023-05-19T14:57:07.200Z,17.44
2023-05-19T14:59:38.060Z,17.34
2023-05-19T15:02:06.355Z,17.44
2023-05-19T15:04:34.324Z,17.43
2023-05-19T15:09:32.572Z,17.46
2023-05-19T15:12:01.042Z,17.40
2023-05-19T15:14:31.061Z,17.38
2023-05-19T15:16:59.350Z,17.40
2023-05-19T15:19:27.291Z,17.33
2023-05-19T15:21:55.208Z,17.50
2023-05-19T15:24:22.862Z,17.45
2023-05-19T15:26:50.549Z,17.45
2023-05-19T15:29:18.220Z,17.38
2023-05-19T15:31:47.455Z,17.32
2023-05-19T15:34:15.189Z,17.44
2023-05-19T15:36:43.004Z,17.58
2023-05-19T15:39:10.942Z,17.63
2023-05-19T15:41:38.577Z,17.62
2023-05-19T15:44:07.644Z,17.61
2023-05-19T15:46:35.495Z,17.59
2023-05-19T15:49:05.106Z,17.70
2023-05-19T15:51:32.721Z,17.58
2023-05-19T15:54:00.861Z,17.63
2023-05-19T15:56:28.621Z,17.56
2023-05-19T15:58:56.777Z,17.45
2023-05-19T16:01:25.077Z,17.33
2023-05-19T16:03:53.219Z,17.24
2023-05-19T16:06:22.386Z,17.06
2023-05-19T16:08:50.542Z,17.15
2023-05-19T16:11:18.329Z,17.27
2023-05-19T16:13:45.946Z,17.23
2023-05-19T16:16:13.753Z,17.17
2023-05-19T16:18:41.809Z,17.19
2023-05-19T16:21:09.515Z,17.17
2023-05-19T16:23:38.608Z,17.23
2023-05-19T16:26:06.323Z,17.26
2023-05-19T16:28:34.073Z,17.28
2023-05-19T16:31:01.797Z,17.30
2023-05-19T16:33:30.073Z,17.22
2023-05-19T16:35:59.730Z,17.12
2023-05-19T16:38:27.615Z,17.00
2023-05-19T16:40:56.679Z,16.98
2023-05-19T16:43:24.778Z,17.17
2023-05-19T16:45:52.729Z,17.25
2023-05-19T16:48:20.446Z,17.17
2023-05-19T16:50:49.013Z,17.18
2023-05-19T16:53:16.714Z,17.07
2023-05-19T16:55:44.322Z,16.98
2023-05-19T16:58:13.425Z,16.81
2023-05-19T17:00:41.091Z,16.82
2023-05-19T17:03:08.826Z,16.75
2023-05-19T17:05:38.889Z,16.65
2023-05-19T17:08:06.529Z,16.60
2023-05-19T17:10:34.398Z,16.57
2023-05-19T17:13:02.218Z,16.47
2023-05-19T17:15:31.326Z,16.43
2023-05-19T17:17:59.024Z,16.34
2023-05-19T17:20:26.685Z,16.23
2023-05-19T17:22:54.373Z,16.24
2023-05-19T17:25:22.049Z,16.09
2023-05-19T17:27:49.763Z,16.07
2023-05-19T17:30:17.541Z,15.95
2023-05-19T17:32:47.112Z,16.00
2023-05-19T17:35:15.049Z,15.95
2023-05-19T17:37:42.718Z,16.04
2023-05-19T17:40:11.669Z,16.04
2023-05-19T17:42:39.424Z,15.96
2023-05-19T17:45:08.233Z,15.88
2023-05-19T17:47:35.937Z,15.91
2023-05-19T17:50:06.978Z,15.92
2023-05-19T17:52:35.540Z,15.96
2023-05-19T17:55:04.170Z,15.94
2023-05-19T17:57:34.128Z,15.84
2023-05-19T18:00:03.441Z,15.82
2023-05-19T18:02:31.782Z,15.78
2023-05-19T18:05:00.140Z,15.78
2023-05-19T18:07:30.058Z,15.75
2023-05-19T18:09:59.151Z,15.69
2023-05-19T18:12:27.256Z,15.68
2023-05-19T18:14:55.020Z,15.69
2023-05-19T18:17:22.671Z,15.63
2023-05-19T18:19:50.349Z,15.54
2023-05-19T18:22:18.114Z,15.43
2023-05-19T18:24:47.217Z,15.31
2023-05-19T18:27:14.893Z,15.22
2023-05-19T18:29:43.403Z,15.24
2023-05-19T18:32:14.321Z,15.39
2023-05-19T18:34:42.403Z,15.55
2023-05-19T18:37:10.124Z,15.60
2023-05-19T18:39:38.127Z,15.59
2023-05-19T18:42:07.368Z,15.64
2023-05-19T18:44:35.018Z,15.68
2023-05-19T18:47:02.662Z,15.66
2023-05-19T18:49:30.355Z,15.49
2023-05-19T18:51:57.967Z,15.50
2023-05-19T18:54:25.699Z,15.38
2023-05-19T18:56:53.319Z,15.31
2023-05-19T18:59:23.637Z,15.16
2023-05-19T19:01:51.238Z,15.11
2023-05-19T19:04:18.935Z,14.96
2023-05-19T19:06:47.705Z,14.80
2023-05-19T19:09:15.406Z,14.69
2023-05-19T19:11:43.224Z,14.57
2023-05-19T19:14:10.980Z,14.47
2023-05-19T19:16:39.910Z,14.33
2023-05-19T19:19:08.318Z,14.18
2023-05-19T19:21:35.984Z,14.00
2023-05-19T19:24:03.673Z,13.90
2023-05-19T19:26:31.307Z,13.70
2023-05-19T19:28:59.212Z,13.69
2023-05-19T19:31:28.707Z,13.60
2023-05-19T19:34:00.815Z,13.51
2023-05-19T19:36:28.566Z,13.43
2023-05-19T19:38:56.363Z,13.36
2023-05-19T19:41:25.285Z,13.31
2023-05-19T19:43:53.030Z,13.25
2023-05-19T19:46:20.751Z,13.12
2023-05-19T19:48:48.393Z,13.07
2023-05-19T19:51:17.383Z,13.03
2023-05-19T19:53:45.120Z,12.95
2023-05-19T19:56:12.703Z,12.88
2023-05-19T19:58:40.481Z,12.85
2023-05-19T20:01:08.313Z,12.78
2023-05-19T20:03:36.656Z,12.78
2023-05-19T20:06:04.676Z,12.73
2023-05-19T20:08:34.009Z,12.62
2023-05-19T20:11:01.774Z,12.54
2023-05-19T20:13:30.665Z,12.46
2023-05-19T20:15:59.720Z,12.39
2023-05-19T20:18:29.579Z,12.33
2023-05-19T20:20:57.432Z,12.30
2023-05-19T20:23:25.077Z,12.24
2023-05-19T20:26:09.196Z,12.19
2023-05-19T20:28:38.283Z,12.10
2023-05-19T20:31:06.225Z,12.05
2023-05-19T20:33:33.879Z,12.00
2023-05-19T20:36:01.689Z,11.95
2023-05-19T20:38:29.343Z,11.94
2023-05-19T20:40:58.384Z,11.89
2023-05-19T20:43:26.207Z,11.87
2023-05-19T20:45:53.915Z,11.84
2023-05-19T20:48:21.654Z,11.80
2023-05-19T20:50:49.305Z,11.75
2023-05-19T20:53:16.979Z,11.70
2023-05-19T20:55:45.356Z,11.66
2023-05-19T20:58:14.570Z,11.59
2023-05-19T21:00:42.232Z,11.54
2023-05-19T21:03:10.042Z,11.47
2023-05-19T21:05:37.802Z,11.41
2023-05-19T21:08:05.848Z,11.42
2023-05-19T21:10:33.838Z,11.35
2023-05-19T21:13:01.769Z,11.31
2023-05-19T21:15:30.711Z,11.27
2023-05-19T21:17:59.451Z,11.25
2023-05-19T21:20:27.742Z,11.24
2023-05-19T21:22:55.426Z,11.22
2023-05-19T21:25:23.219Z,11.20
2023-05-19T21:27:51.583Z,11.18
2023-05-19T21:30:19.343Z,11.16
2023-05-19T21:32:48.393Z,11.13
2023-05-19T21:35:16.225Z,11.09
2023-05-19T21:37:43.879Z,11.06
2023-05-19T21:40:12.438Z,11.02
2023-05-19T21:42:40.142Z,10.99
2023-05-19T21:45:09.236Z,10.96
2023-05-19T21:47:36.853Z,10.96
2023-05-19T21:50:06.754Z,10.96
2023-05-19T21:52:35.993Z,10.97
2023-05-19T21:55:03.649Z,10.98
2023-05-19T21:57:31.427Z,10.96
2023-05-19T21:59:59.080Z,10.94
2023-05-19T22:02:26.859Z,10.91
2023-05-19T22:04:54.499Z,10.88
2023-05-19T22:07:26.865Z,10.82
2023-05-19T22:09:54.807Z,10.74
2023-05-19T22:12:23.088Z,10.73
2023-05-19T22:14:50.761Z,10.67
2023-05-19T22:17:18.437Z,10.66
2023-05-19T22:19:47.009Z,10.63
2023-05-19T22:22:14.915Z,10.61
2023-05-19T22:24:43.998Z,10.55
2023-05-19T22:27:11.643Z,10.56
2023-05-19T22:29:39.328Z,10.53
2023-05-19T22:32:11.628Z,10.55
2023-05-19T22:34:39.463Z,10.54
2023-05-19T22:37:07.185Z,10.54
2023-05-19T22:39:34.804Z,10.54
2023-05-19T22:42:03.745Z,10.53
2023-05-19T22:44:31.320Z,10.54
2023-05-19T22:46:59.284Z,10.57
2023-05-19T22:49:27.400Z,10.55
2023-05-19T22:51:55.111Z,10.57
2023-05-19T22:54:22.772Z,10.55
2023-05-19T22:56:50.544Z,10.53
2023-05-19T22:59:19.658Z,10.52
2023-05-19T23:01:47.378Z,10.51
2023-05-19T23:04:15.200Z,10.49
2023-05-19T23:06:42.934Z,10.46
2023-05-19T23:09:10.526Z,10.44
2023-05-19T23:11:38.140Z,10.44
2023-05-19T23:14:06.106Z,10.37
2023-05-19T23:16:35.220Z,10.32
2023-05-19T23:19:03.046Z,10.23
2023-05-19T23:21:31.251Z,10.22
2023-05-19T23:23:59.789Z,10.17
2023-05-19T23:26:27.517Z,10.15
2023-05-19T23:28:55.263Z,10.14
2023-05-19T23:31:22.928Z,10.12
2023-05-19T23:33:51.940Z,10.08
2023-05-19T23:36:19.947Z,10.06
2023-05-19T23:38:47.838Z,10.04
2023-05-19T23:41:15.595Z,10.05
2023-05-19T23:43:43.385Z,10.04
2023-05-19T23:46:11.072Z,10.01
2023-05-19T23:48:39.400Z,9.94
2023-05-19T23:51:08.502Z,9.95
2023-05-19T23:53:36.245Z,9.92
2023-05-19T23:56:03.848Z,9.88
2023-05-19T23:58:31.457Z,9.86
